»·PEaware :: AVA21 KJFK-SKBO

AVA21 :: KJFK-SKBO

FLIGHT INFORMATION

Flight Status: Arrived
Operator:
Avianca
More flights by this operator :: More flights under this callsign
Pilot: Anonymous 14085 (14085)
Aircraft: AIRBUS A330
(A330)
More flights by this aircraft type
Origin: KJFK Kennedy Intl
United States
Destination: SKBO Eldorado Intl
Colombia
More flights between these airports :: More routes between these airports
Route: WAVEY EMJAY J174 DIW AR23 PANAL AR3 ZQA B503 ENAMO UB503 UMZ UL417 MLY UA301 OTAMO UL542 EJA UW10 BUV A567 VULAM VULA2E
File this flight plan on PilotEdge
Remarks: PBN / A1B1C1D1O1S2 DOF / 170610 REG / N315SB EET / KZNY0003 KZDC0009 KZJX0103 KZMA0131 MUFH0222 MKJK0255 SKEC0328 SKED0425 OPR / AVA RMK / TCAS SIMBRIEF
Altitude:
(Current/Filed)
36,000ft
Speed:
(Current/Filed)
459kts
Departed: 10-Jun-17 12:14 PM
Arrived: 10-Jun-17 05:15 PM
Distance/Time
Traveled:
2156nm/5:01
Distance/Time
To Go:
Arrived

Flight Plot

Page will automatically refresh every two minutes.

Flight plan parsing failed; only flown route is shown


Map Options




Map Legend


Flown Route
Filed Route
Departure Airport
Arrival Airport
Navaid (VOR, NDB)
Fix

Horizontal Profiles

Position Reports

Time Latitude Longitude Heading Altitude Ground
Speed
10-Jun-17 12:08 40.622212 -73.785505 30 14ft 0kts
10-Jun-17 12:09 40.622212 -73.785505 30 14ft 0kts
10-Jun-17 12:10 40.622212 -73.785505 30 14ft 0kts
10-Jun-17 12:11 40.622212 -73.785505 30 14ft 0kts
10-Jun-17 12:12 40.622212 -73.785505 30 14ft 0kts
10-Jun-17 12:13 40.622212 -73.785505 30 14ft 0kts
10-Jun-17 12:14 40.622212 -73.785505 30 14ft 0kts
10-Jun-17 12:15 40.622212 -73.785505 30 14ft 0kts
10-Jun-17 12:16 40.630673 -73.778867 31 16ft 124kts
10-Jun-17 12:17 40.657102 -73.721823 133 995ft 223kts
10-Jun-17 12:18 40.593693 -73.697387 158 3539ft 251kts
10-Jun-17 12:19 40.529488 -73.650652 152 6011ft 283kts
10-Jun-17 12:20 40.473518 -73.603081 150 8208ft 297kts
10-Jun-17 12:21 40.404116 -73.542565 149 10470ft 321kts
10-Jun-17 12:22 40.322952 -73.471642 148 11570ft 384kts
10-Jun-17 12:23 40.231501 -73.391598 146 13658ft 409kts
10-Jun-17 12:24 40.120727 -73.301186 174 16215ft 417kts
10-Jun-17 12:25 40.032711 -73.337385 217 17874ft 411kts
10-Jun-17 12:26 39.942819 -73.430737 223 19698ft 423kts
10-Jun-17 12:27 39.853235 -73.530158 224 21414ft 435kts
10-Jun-17 12:28 39.761083 -73.632594 224 22995ft 446kts
10-Jun-17 12:29 39.668177 -73.735673 223 24430ft 457kts
10-Jun-17 12:30 39.571345 -73.842584 224 25741ft 469kts
10-Jun-17 12:31 39.471667 -73.952205 224 26975ft 481kts
10-Jun-17 12:32 39.369631 -74.063969 224 28153ft 491kts
10-Jun-17 12:33 39.265849 -74.177171 224 29550ft 495kts
10-Jun-17 12:34 39.161167 -74.290872 224 30972ft 497kts
10-Jun-17 12:35 39.056227 -74.404451 225 32247ft 499kts
10-Jun-17 12:36 38.951156 -74.517698 225 33452ft 501kts
10-Jun-17 12:37 38.846224 -74.630158 225 34532ft 502kts
10-Jun-17 12:38 38.744152 -74.739249 224 35625ft 499kts
10-Jun-17 12:39 38.638710 -74.850433 224 36582ft 496kts
10-Jun-17 12:40 38.534062 -74.961373 224 37350ft 496kts
10-Jun-17 12:41 38.429262 -75.072434 224 38044ft 495kts
10-Jun-17 12:42 38.325431 -75.182070 224 38112ft 496kts
10-Jun-17 12:43 38.220621 -75.292248 224 38104ft 492kts
10-Jun-17 12:44 38.115755 -75.402109 224 38103ft 495kts
10-Jun-17 12:45 38.005301 -75.502459 215 38106ft 500kts
10-Jun-17 12:46 37.887927 -75.591928 215 38130ft 497kts
10-Jun-17 12:47 37.777866 -75.674754 214 38130ft 500kts
10-Jun-17 12:48 37.660171 -75.763267 214 38131ft 498kts
10-Jun-17 12:49 37.542668 -75.850976 211 38099ft 499kts
10-Jun-17 12:50 37.416156 -75.921130 206 38107ft 503kts
10-Jun-17 12:51 37.288905 -75.989334 206 38105ft 503kts
10-Jun-17 12:52 37.161494 -76.057318 206 38104ft 501kts
10-Jun-17 12:53 37.034133 -76.125020 206 38105ft 502kts
10-Jun-17 12:54 36.907495 -76.192105 206 38106ft 502kts
10-Jun-17 12:55 36.784699 -76.259876 208 38118ft 502kts
10-Jun-17 12:56 36.658823 -76.329628 208 38104ft 500kts
10-Jun-17 12:57 36.532848 -76.399190 208 38128ft 500kts
10-Jun-17 12:58 36.407607 -76.468092 208 38102ft 499kts
10-Jun-17 12:59 36.281864 -76.537036 208 38134ft 500kts
10-Jun-17 13:00 36.156033 -76.605768 208 38129ft 499kts
10-Jun-17 13:01 36.031443 -76.673700 207 38133ft 500kts
10-Jun-17 13:02 35.906937 -76.741266 207 38133ft 499kts
10-Jun-17 13:03 35.783805 -76.807759 207 38128ft 499kts
10-Jun-17 13:04 35.658267 -76.875386 207 38130ft 499kts
10-Jun-17 13:05 35.533015 -76.942627 207 38131ft 498kts
10-Jun-17 13:06 35.407215 -77.009949 207 38130ft 498kts
10-Jun-17 13:07 35.281478 -77.077002 207 38132ft 498kts
10-Jun-17 13:08 35.155851 -77.143770 207 38160ft 497kts
10-Jun-17 13:09 35.030401 -77.210215 207 38154ft 497kts
10-Jun-17 13:10 34.904593 -77.276622 208 38159ft 497kts
10-Jun-17 13:11 34.779593 -77.342322 208 38157ft 498kts
10-Jun-17 13:12 34.654506 -77.407911 208 38156ft 497kts
10-Jun-17 13:13 34.525257 -77.461574 194 38154ft 504kts
10-Jun-17 13:14 34.388630 -77.492506 194 38160ft 504kts
10-Jun-17 13:15 34.252486 -77.522421 194 38158ft 505kts
10-Jun-17 13:16 34.121580 -77.551071 194 38158ft 505kts
10-Jun-17 13:17 33.985997 -77.580653 194 38159ft 504kts
10-Jun-17 13:18 33.850040 -77.610187 194 38158ft 503kts
10-Jun-17 13:19 33.714203 -77.639619 194 38192ft 504kts
10-Jun-17 13:20 33.578511 -77.669050 193 38183ft 504kts
10-Jun-17 13:21 33.442256 -77.698414 193 38185ft 504kts
10-Jun-17 13:22 33.306086 -77.727645 193 38186ft 503kts
10-Jun-17 13:23 33.169551 -77.756863 193 38185ft 504kts
10-Jun-17 13:24 33.033572 -77.785869 193 38186ft 504kts
10-Jun-17 13:25 32.897786 -77.814749 193 38187ft 503kts
10-Jun-17 13:26 32.763360 -77.843126 194 38177ft 481kts
10-Jun-17 13:27 32.631860 -77.870950 193 38188ft 490kts
10-Jun-17 13:28 32.496110 -77.868518 180 38187ft 499kts
10-Jun-17 13:29 32.359839 -77.860019 180 38184ft 496kts
10-Jun-17 13:30 32.223735 -77.851701 181 38185ft 494kts
10-Jun-17 13:31 32.088050 -77.844154 181 38186ft 495kts
10-Jun-17 13:32 31.952006 -77.836635 181 38186ft 496kts
10-Jun-17 13:33 31.816650 -77.829148 181 38184ft 493kts
10-Jun-17 13:34 31.680791 -77.821637 181 38178ft 490kts
10-Jun-17 13:35 31.545669 -77.814229 181 38165ft 493kts
10-Jun-17 13:36 31.410202 -77.806833 181 38156ft 494kts
10-Jun-17 13:37 31.274600 -77.799416 181 38158ft 491kts
10-Jun-17 13:38 31.139065 -77.791734 181 38159ft 491kts
10-Jun-17 13:39 31.004175 -77.784004 181 38159ft 493kts
10-Jun-17 13:40 30.870705 -77.776361 181 38157ft 491kts
10-Jun-17 13:41 30.735422 -77.768619 181 38157ft 489kts
10-Jun-17 13:42 30.600253 -77.760897 181 38153ft 487kts
10-Jun-17 13:43 30.465668 -77.753281 181 38161ft 491kts
10-Jun-17 13:44 30.331598 -77.746005 181 38159ft 489kts
10-Jun-17 13:45 30.197012 -77.738926 181 38158ft 486kts
10-Jun-17 13:46 30.062148 -77.731874 181 38127ft 488kts
10-Jun-17 13:47 29.928304 -77.724901 181 38133ft 488kts
10-Jun-17 13:48 29.794041 -77.717942 182 38132ft 486kts
10-Jun-17 13:49 29.660066 -77.711008 182 38135ft 485kts
10-Jun-17 13:50 29.526016 -77.704106 182 38132ft 487kts
10-Jun-17 13:51 29.392486 -77.697262 182 38131ft 485kts
10-Jun-17 13:52 29.258707 -77.690382 182 38132ft 482kts
10-Jun-17 13:53 29.124815 -77.683549 182 38132ft 485kts
10-Jun-17 13:54 28.991560 -77.676767 182 38132ft 484kts
10-Jun-17 13:55 28.858964 -77.670007 182 38131ft 481kts
10-Jun-17 13:56 28.725718 -77.663264 182 38137ft 484kts
10-Jun-17 13:57 28.592858 -77.656543 182 38130ft 481kts
10-Jun-17 13:58 28.459794 -77.649810 182 38129ft 480kts
10-Jun-17 13:59 28.326652 -77.643118 182 38132ft 482kts
10-Jun-17 14:00 28.194354 -77.636486 182 38134ft 481kts
10-Jun-17 14:01 28.061617 -77.629367 182 38133ft 478kts
10-Jun-17 14:02 27.929273 -77.621856 182 38130ft 482kts
10-Jun-17 14:03 27.798245 -77.614435 182 38132ft 480kts
10-Jun-17 14:04 27.665726 -77.606905 182 38098ft 477kts
10-Jun-17 14:05 27.533584 -77.599454 182 38125ft 479kts
10-Jun-17 14:06 27.401836 -77.592030 182 38130ft 477kts
10-Jun-17 14:07 27.270316 -77.584628 182 38107ft 474kts
10-Jun-17 14:08 27.138444 -77.577237 182 38102ft 475kts
10-Jun-17 14:09 27.006955 -77.569890 182 38105ft 478kts
10-Jun-17 14:10 26.875652 -77.561650 181 38105ft 477kts
10-Jun-17 14:11 26.744114 -77.553339 181 38104ft 475kts
10-Jun-17 14:12 26.612523 -77.545064 181 38105ft 476kts
10-Jun-17 14:13 26.480931 -77.536802 181 38104ft 475kts
10-Jun-17 14:14 26.350095 -77.528596 181 38111ft 473kts
10-Jun-17 14:15 26.218534 -77.520375 181 38105ft 473kts
10-Jun-17 14:16 26.087405 -77.512204 181 38103ft 475kts
10-Jun-17 14:17 25.956656 -77.504075 181 38105ft 474kts
10-Jun-17 14:18 25.825557 -77.495915 181 38105ft 473kts
10-Jun-17 14:19 25.694990 -77.487813 181 38105ft 474kts
10-Jun-17 14:20 25.563883 -77.479682 181 38109ft 473kts
10-Jun-17 14:21 25.433590 -77.471618 181 38102ft 475kts
10-Jun-17 14:22 25.303893 -77.463634 181 38104ft 474kts
10-Jun-17 14:23 25.173013 -77.455563 181 38106ft 472kts
10-Jun-17 14:24 25.042409 -77.447543 181 38105ft 473kts
10-Jun-17 14:25 24.911643 -77.439674 181 38105ft 474kts
10-Jun-17 14:26 24.780678 -77.431821 181 38104ft 473kts
10-Jun-17 14:27 24.650398 -77.424031 181 38105ft 471kts
10-Jun-17 14:28 24.519895 -77.416236 181 38104ft 472kts
10-Jun-17 14:29 24.388835 -77.408425 181 38104ft 472kts
10-Jun-17 14:30 24.258764 -77.400692 181 38105ft 472kts
10-Jun-17 14:31 24.128494 -77.393341 182 38105ft 472kts
10-Jun-17 14:32 23.997676 -77.386334 181 38106ft 472kts
10-Jun-17 14:33 23.867158 -77.378347 181 38105ft 472kts
10-Jun-17 14:34 23.736561 -77.370354 181 38105ft 473kts
10-Jun-17 14:35 23.605599 -77.362353 181 38104ft 473kts
10-Jun-17 14:36 23.474917 -77.354434 181 38106ft 473kts
10-Jun-17 14:37 23.344913 -77.346502 182 38048ft 473kts
10-Jun-17 14:38 23.213967 -77.338602 182 38043ft 474kts
10-Jun-17 14:39 23.083023 -77.330746 182 38050ft 473kts
10-Jun-17 14:40 22.951832 -77.322891 182 38051ft 474kts
10-Jun-17 14:41 22.821613 -77.315102 182 38048ft 474kts
10-Jun-17 14:42 22.690299 -77.307270 182 38048ft 474kts
10-Jun-17 14:43 22.559444 -77.299481 182 38049ft 474kts
10-Jun-17 14:44 22.428131 -77.291680 182 38048ft 475kts
10-Jun-17 14:45 22.296543 -77.283881 182 38049ft 475kts
10-Jun-17 14:46 22.165755 -77.276141 182 37995ft 475kts
10-Jun-17 14:47 22.034275 -77.268375 182 38000ft 475kts
10-Jun-17 14:48 21.902851 -77.260620 182 37996ft 474kts
10-Jun-17 14:49 21.771771 -77.252899 182 37994ft 475kts
10-Jun-17 14:50 21.640065 -77.245164 182 37995ft 475kts
10-Jun-17 14:51 21.508394 -77.237446 182 37995ft 476kts
10-Jun-17 14:52 21.378281 -77.229000 178 37995ft 478kts
10-Jun-17 14:53 21.246603 -77.212832 178 37994ft 478kts
10-Jun-17 14:54 21.114621 -77.196892 178 38030ft 478kts
10-Jun-17 14:55 20.982976 -77.181015 178 38045ft 479kts
10-Jun-17 14:56 20.853102 -77.165382 178 38052ft 479kts
10-Jun-17 14:57 20.720983 -77.149503 178 38050ft 479kts
10-Jun-17 14:58 20.589353 -77.133711 178 38049ft 479kts
10-Jun-17 14:59 20.456941 -77.117853 178 38049ft 480kts
10-Jun-17 15:00 20.324929 -77.102073 178 38050ft 480kts
10-Jun-17 15:01 20.192866 -77.084526 177 38050ft 480kts
10-Jun-17 15:02 20.060703 -77.066639 177 38049ft 480kts
10-Jun-17 15:03 19.928530 -77.048782 177 38050ft 481kts
10-Jun-17 15:04 19.796513 -77.030985 177 38050ft 481kts
10-Jun-17 15:05 19.664019 -77.013141 177 38082ft 481kts
10-Jun-17 15:06 19.531967 -76.995392 177 38077ft 481kts
10-Jun-17 15:07 19.401887 -76.977920 177 38070ft 457kts
10-Jun-17 15:08 19.275852 -76.961047 177 38077ft 465kts
10-Jun-17 15:09 19.148914 -76.943642 177 38077ft 462kts
10-Jun-17 15:10 19.021407 -76.926144 177 38076ft 461kts
10-Jun-17 15:11 18.895085 -76.908855 177 37990ft 461kts
10-Jun-17 15:12 18.768127 -76.891516 177 37992ft 463kts
10-Jun-17 15:13 18.641065 -76.874181 177 37998ft 463kts
10-Jun-17 15:14 18.513792 -76.856836 177 37996ft 462kts
10-Jun-17 15:15 18.407793 -76.842411 177 37996ft 462kts
10-Jun-17 15:16 18.259678 -76.822289 177 37996ft 462kts
10-Jun-17 15:17 18.132785 -76.805076 177 37996ft 462kts
10-Jun-17 15:18 18.005346 -76.787813 177 37996ft 462kts
10-Jun-17 15:19 17.879906 -76.763383 170 37994ft 466kts
10-Jun-17 15:20 17.754820 -76.729388 169 37994ft 466kts
10-Jun-17 15:21 17.650289 -76.700681 169 37995ft 466kts
10-Jun-17 15:22 17.504331 -76.660641 169 37997ft 466kts
10-Jun-17 15:23 17.379233 -76.626375 169 37996ft 466kts
10-Jun-17 15:24 17.254200 -76.592176 169 37997ft 466kts
10-Jun-17 15:25 17.149741 -76.563640 169 37997ft 466kts
10-Jun-17 15:26 17.024954 -76.529595 169 37996ft 466kts
10-Jun-17 15:27 16.879334 -76.489930 169 37997ft 466kts
10-Jun-17 15:28 16.753903 -76.455839 169 37997ft 466kts
10-Jun-17 15:29 16.629053 -76.421925 169 37997ft 466kts
10-Jun-17 15:30 16.503792 -76.387947 169 37996ft 466kts
10-Jun-17 15:31 16.399468 -76.359677 169 37996ft 466kts
10-Jun-17 15:32 16.275605 -76.326031 169 37996ft 466kts
10-Jun-17 15:33 16.150542 -76.292217 169 37994ft 466kts
10-Jun-17 15:34 16.025576 -76.258488 169 37994ft 466kts
10-Jun-17 15:35 15.900361 -76.224737 169 37994ft 466kts
10-Jun-17 15:36 15.775516 -76.191151 169 37996ft 466kts
10-Jun-17 15:37 15.650414 -76.157517 169 37995ft 466kts
10-Jun-17 15:38 15.525425 -76.123954 169 37995ft 466kts
10-Jun-17 15:39 15.400274 -76.090390 169 37995ft 466kts
10-Jun-17 15:40 15.275385 -76.056938 169 37995ft 466kts
10-Jun-17 15:41 15.150989 -76.023658 169 37995ft 466kts
10-Jun-17 15:42 15.025463 -75.990118 169 37996ft 466kts
10-Jun-17 15:43 14.901152 -75.956077 169 37995ft 465kts
10-Jun-17 15:44 14.776362 -75.921753 169 37996ft 466kts
10-Jun-17 15:45 14.651716 -75.887485 169 37996ft 466kts
10-Jun-17 15:46 14.526905 -75.853208 169 37995ft 465kts
10-Jun-17 15:47 14.402047 -75.818959 169 37995ft 465kts
10-Jun-17 15:48 14.277463 -75.784824 169 37895ft 464kts
10-Jun-17 15:49 14.152815 -75.750705 169 37885ft 465kts
10-Jun-17 15:50 14.028067 -75.716610 169 37886ft 466kts
10-Jun-17 15:51 13.936750 -75.691670 169 37887ft 465kts
10-Jun-17 15:52 13.811912 -75.657637 169 37889ft 465kts
10-Jun-17 15:53 13.687186 -75.623652 169 37888ft 466kts
10-Jun-17 15:54 13.562540 -75.589719 169 37888ft 466kts
10-Jun-17 15:55 13.437446 -75.555699 169 37888ft 465kts
10-Jun-17 15:56 13.312757 -75.521829 169 37888ft 466kts
10-Jun-17 15:57 13.188070 -75.487995 169 37888ft 466kts
10-Jun-17 15:58 13.062962 -75.454081 169 37888ft 466kts
10-Jun-17 15:59 12.938924 -75.420500 169 37889ft 465kts
10-Jun-17 16:00 12.815614 -75.388022 169 37889ft 465kts
10-Jun-17 16:01 12.690352 -75.355063 169 37888ft 465kts
10-Jun-17 16:02 12.566189 -75.322290 169 37886ft 465kts
10-Jun-17 16:03 12.441022 -75.289412 169 37887ft 465kts
10-Jun-17 16:04 12.316422 -75.256729 169 37887ft 465kts
10-Jun-17 16:05 12.191702 -75.224062 169 37886ft 465kts
10-Jun-17 16:06 12.066779 -75.191374 169 37887ft 465kts
10-Jun-17 16:07 11.941986 -75.158751 169 37887ft 465kts
10-Jun-17 16:08 11.817927 -75.126372 169 37887ft 465kts
10-Jun-17 16:09 11.692842 -75.093737 169 37887ft 465kts
10-Jun-17 16:10 11.568530 -75.061318 169 37887ft 465kts
10-Jun-17 16:11 11.443398 -75.028709 169 37887ft 465kts
10-Jun-17 16:12 11.318726 -74.996249 169 37888ft 465kts
10-Jun-17 16:13 11.193785 -74.963748 169 37888ft 465kts
10-Jun-17 16:14 11.068736 -74.931248 169 37887ft 465kts
10-Jun-17 16:15 10.943635 -74.898763 169 37887ft 465kts
10-Jun-17 16:16 10.821278 -74.867043 169 37888ft 465kts
10-Jun-17 16:17 10.697660 -74.832602 168 37888ft 466kts
10-Jun-17 16:18 10.578143 -74.800491 168 37899ft 465kts
10-Jun-17 16:19 10.453743 -74.765355 168 37920ft 466kts
10-Jun-17 16:20 10.329145 -74.729994 168 37922ft 466kts
10-Jun-17 16:21 10.204901 -74.694753 168 37921ft 465kts
10-Jun-17 16:22 10.081045 -74.659648 168 37920ft 465kts
10-Jun-17 16:23 9.956790 -74.624459 168 37921ft 465kts
10-Jun-17 16:24 9.833332 -74.589555 168 37923ft 465kts
10-Jun-17 16:25 9.709041 -74.554417 168 37923ft 465kts
10-Jun-17 16:26 9.584434 -74.519211 168 37923ft 465kts
10-Jun-17 16:27 9.460359 -74.484178 168 37923ft 466kts
10-Jun-17 16:28 9.336228 -74.449166 168 37900ft 466kts
10-Jun-17 16:29 9.211920 -74.414126 168 37898ft 466kts
10-Jun-17 16:30 9.088309 -74.379301 168 37915ft 464kts
10-Jun-17 16:31 8.964691 -74.344480 168 37899ft 465kts
10-Jun-17 16:32 8.844577 -74.310591 168 38236ft 459kts
10-Jun-17 16:33 8.720350 -74.275681 168 38700ft 466kts
10-Jun-17 16:34 8.596100 -74.240790 168 39364ft 465kts
10-Jun-17 16:35 8.472008 -74.205962 168 39885ft 466kts
10-Jun-17 16:36 8.347494 -74.171021 168 39860ft 463kts
10-Jun-17 16:37 8.223191 -74.136171 168 39862ft 465kts
10-Jun-17 16:38 8.099249 -74.101462 168 39867ft 466kts
10-Jun-17 16:39 7.975511 -74.066843 169 39861ft 464kts
10-Jun-17 16:40 7.852064 -74.032729 168 39865ft 465kts
10-Jun-17 16:41 7.728042 -73.998472 168 39867ft 465kts
10-Jun-17 16:42 7.604173 -73.964258 168 39864ft 464kts
10-Jun-17 16:43 7.480035 -73.929996 168 39865ft 465kts
10-Jun-17 16:44 7.355933 -73.895768 168 39866ft 465kts
10-Jun-17 16:45 7.231548 -73.861473 168 39865ft 464kts
10-Jun-17 16:46 7.107200 -73.827214 168 39866ft 465kts
10-Jun-17 16:47 6.986135 -73.808272 185 39883ft 455kts
10-Jun-17 16:48 6.861250 -73.811567 186 39861ft 453kts
10-Jun-17 16:49 6.735253 -73.815993 186 39869ft 455kts
10-Jun-17 16:50 6.609383 -73.820458 186 39867ft 454kts
10-Jun-17 16:51 6.483274 -73.824922 186 39864ft 453kts
10-Jun-17 16:52 6.357379 -73.829383 186 39867ft 454kts
10-Jun-17 16:53 6.233161 -73.833780 186 38936ft 445kts
10-Jun-17 16:54 6.111625 -73.838102 186 37693ft 432kts
10-Jun-17 16:55 5.993838 -73.842280 186 36428ft 417kts
10-Jun-17 16:56 5.883379 -73.846200 186 35213ft 405kts
10-Jun-17 16:57 5.777217 -73.849952 186 34039ft 393kts
10-Jun-17 16:58 5.669667 -73.853765 185 32919ft 381kts
10-Jun-17 16:59 5.566823 -73.858969 198 31897ft 362kts
10-Jun-17 17:00 5.504290 -73.927307 242 30828ft 336kts
10-Jun-17 17:01 5.462916 -74.011721 245 29304ft 341kts
10-Jun-17 17:02 5.422330 -74.100279 245 27213ft 360kts
10-Jun-17 17:03 5.380364 -74.192424 245 25071ft 368kts
10-Jun-17 17:04 5.337704 -74.286055 245 22877ft 371kts
10-Jun-17 17:05 5.269107 -74.353090 180 20629ft 371kts
10-Jun-17 17:06 5.209754 -74.284348 108 18453ft 358kts
10-Jun-17 17:07 5.134191 -74.253124 212 16302ft 328kts
10-Jun-17 17:08 5.055643 -74.296369 206 13918ft 326kts
10-Jun-17 17:09 4.978518 -74.334694 205 12549ft 287kts
10-Jun-17 17:10 4.912110 -74.367460 203 11992ft 243kts
10-Jun-17 17:11 4.859253 -74.349847 120 11569ft 208kts
10-Jun-17 17:12 4.826131 -74.301470 127 11611ft 210kts
10-Jun-17 17:13 4.791308 -74.255098 128 10930ft 195kts
10-Jun-17 17:14 4.763006 -74.217667 128 9928ft 151kts
10-Jun-17 17:15 4.737590 -74.183804 128 9089ft 152kts
10-Jun-17 17:16 4.712159 -74.150411 128 8363ft 147kts
10-Jun-17 17:17 4.704786 -74.140664 127 8366ft 29kts
10-Jun-17 17:18 4.700609 -74.140341 188 8368ft 17kts
10-Jun-17 17:19 4.699439 -74.140747 202 8372ft 0kts
10-Jun-17 17:20 4.772934 -74.230774 128 10272ft 161kts
10-Jun-17 17:21 4.747152 -74.196713 128 9456ft 153kts
10-Jun-17 17:22 4.721922 -74.163265 129 8683ft 152kts
10-Jun-17 17:23 4.719235 -74.159773 128 8587ft 152kts
10-Jun-17 17:24 4.705450 -74.141538 127 8366ft 0kts

Navigation Log

Ident Type
Flight plan parsing failed, navigation log unavailable